sensor_id;sensor_type;location;lat;lon;timestamp;P1;durP1;ratioP1;P2;durP2;ratioP2
36315;SDS011;22343;50.820;2.666;2023-03-16T00:02:40;10.80;;;7.17;;
36315;SDS011;22343;50.820;2.666;2023-03-16T00:05:25;9.53;;;6.83;;
36315;SDS011;22343;50.820;2.666;2023-03-16T00:08:09;11.23;;;6.63;;
36315;SDS011;22343;50.820;2.666;2023-03-16T00:10:54;11.30;;;6.97;;
36315;SDS011;22343;50.820;2.666;2023-03-16T00:13:38;8.33;;;6.60;;
36315;SDS011;22343;50.820;2.666;2023-03-16T00:16:22;9.43;;;6.50;;
36315;SDS011;22343;50.820;2.666;2023-03-16T00:19:06;9.00;;;6.70;;
36315;SDS011;22343;50.820;2.666;2023-03-16T00:21:51;9.57;;;7.00;;
36315;SDS011;22343;50.820;2.666;2023-03-16T00:24:36;10.77;;;7.23;;
36315;SDS011;22343;50.820;2.666;2023-03-16T00:27:20;9.17;;;7.37;;
36315;SDS011;22343;50.820;2.666;2023-03-16T00:30:06;10.33;;;7.40;;
36315;SDS011;22343;50.820;2.666;2023-03-16T00:32:51;10.17;;;7.43;;
36315;SDS011;22343;50.820;2.666;2023-03-16T00:35:36;10.57;;;7.83;;
36315;SDS011;22343;50.820;2.666;2023-03-16T00:38:21;10.17;;;7.50;;
36315;SDS011;22343;50.820;2.666;2023-03-16T00:41:06;11.67;;;7.40;;
36315;SDS011;22343;50.820;2.666;2023-03-16T00:43:52;9.83;;;7.40;;
36315;SDS011;22343;50.820;2.666;2023-03-16T00:46:36;11.43;;;7.17;;
36315;SDS011;22343;50.820;2.666;2023-03-16T00:49:21;10.53;;;7.43;;
36315;SDS011;22343;50.820;2.666;2023-03-16T00:52:06;10.73;;;7.53;;
36315;SDS011;22343;50.820;2.666;2023-03-16T00:54:50;9.53;;;7.00;;
36315;SDS011;22343;50.820;2.666;2023-03-16T00:57:37;11.13;;;7.30;;
36315;SDS011;22343;50.820;2.666;2023-03-16T01:00:22;7.33;;;6.33;;
36315;SDS011;22343;50.820;2.666;2023-03-16T01:03:10;11.30;;;7.03;;
36315;SDS011;22343;50.820;2.666;2023-03-16T01:05:54;8.87;;;6.40;;
36315;SDS011;22343;50.820;2.666;2023-03-16T01:08:43;10.30;;;6.67;;
36315;SDS011;22343;50.820;2.666;2023-03-16T01:11:27;8.80;;;6.60;;
36315;SDS011;22343;50.820;2.666;2023-03-16T01:14:12;9.63;;;6.83;;
36315;SDS011;22343;50.820;2.666;2023-03-16T01:16:56;7.00;;;6.30;;
36315;SDS011;22343;50.820;2.666;2023-03-16T01:19:41;9.17;;;6.63;;
36315;SDS011;22343;50.820;2.666;2023-03-16T01:22:26;9.23;;;6.27;;
36315;SDS011;22343;50.820;2.666;2023-03-16T01:25:12;10.83;;;6.50;;
36315;SDS011;22343;50.820;2.666;2023-03-16T01:27:57;10.20;;;6.27;;
36315;SDS011;22343;50.820;2.666;2023-03-16T01:30:42;7.87;;;6.00;;
36315;SDS011;22343;50.820;2.666;2023-03-16T01:33:27;8.33;;;6.10;;
36315;SDS011;22343;50.820;2.666;2023-03-16T01:36:13;8.73;;;5.77;;
36315;SDS011;22343;50.820;2.666;2023-03-16T01:38:58;9.17;;;6.23;;
36315;SDS011;22343;50.820;2.666;2023-03-16T01:41:43;11.30;;;6.30;;
36315;SDS011;22343;50.820;2.666;2023-03-16T01:44:48;9.77;;;5.83;;
36315;SDS011;22343;50.820;2.666;2023-03-16T01:47:39;8.93;;;6.17;;
36315;SDS011;22343;50.820;2.666;2023-03-16T01:50:25;8.57;;;5.60;;
36315;SDS011;22343;50.820;2.666;2023-03-16T01:53:10;8.33;;;5.83;;
36315;SDS011;22343;50.820;2.666;2023-03-16T01:55:54;9.37;;;6.03;;
36315;SDS011;22343;50.820;2.666;2023-03-16T01:58:39;9.67;;;5.87;;
36315;SDS011;22343;50.820;2.666;2023-03-16T02:01:25;9.13;;;6.43;;
36315;SDS011;22343;50.820;2.666;2023-03-16T02:04:16;9.90;;;6.30;;
36315;SDS011;22343;50.820;2.666;2023-03-16T02:07:07;8.23;;;5.50;;
36315;SDS011;22343;50.820;2.666;2023-03-16T02:09:53;8.97;;;5.90;;
36315;SDS011;22343;50.820;2.666;2023-03-16T02:12:41;8.53;;;5.90;;
36315;SDS011;22343;50.820;2.666;2023-03-16T02:15:26;7.93;;;5.80;;
36315;SDS011;22343;50.820;2.666;2023-03-16T02:18:10;8.77;;;5.40;;
36315;SDS011;22343;50.820;2.666;2023-03-16T02:24:00;9.80;;;5.57;;
36315;SDS011;22343;50.820;2.666;2023-03-16T02:26:48;8.37;;;5.30;;
36315;SDS011;22343;50.820;2.666;2023-03-16T02:32:29;8.10;;;5.33;;
36315;SDS011;22343;50.820;2.666;2023-03-16T02:35:14;7.67;;;5.67;;
36315;SDS011;22343;50.820;2.666;2023-03-16T02:37:59;7.03;;;5.63;;
36315;SDS011;22343;50.820;2.666;2023-03-16T02:40:45;7.30;;;5.30;;
36315;SDS011;22343;50.820;2.666;2023-03-16T02:43:42;10.63;;;5.90;;
36315;SDS011;22343;50.820;2.666;2023-03-16T02:46:30;10.07;;;5.80;;
36315;SDS011;22343;50.820;2.666;2023-03-16T02:49:19;8.83;;;5.90;;
36315;SDS011;22343;50.820;2.666;2023-03-16T02:52:08;7.63;;;5.03;;
36315;SDS011;22343;50.820;2.666;2023-03-16T02:54:54;8.03;;;5.73;;
36315;SDS011;22343;50.820;2.666;2023-03-16T02:57:38;8.33;;;5.80;;
36315;SDS011;22343;50.820;2.666;2023-03-16T03:00:22;7.60;;;5.80;;
36315;SDS011;22343;50.820;2.666;2023-03-16T03:03:06;7.27;;;5.50;;
36315;SDS011;22343;50.820;2.666;2023-03-16T03:05:52;7.07;;;5.30;;
36315;SDS011;22343;50.820;2.666;2023-03-16T03:08:36;7.37;;;5.23;;
36315;SDS011;22343;50.820;2.666;2023-03-16T03:11:21;9.23;;;5.77;;
36315;SDS011;22343;50.820;2.666;2023-03-16T03:14:05;9.93;;;5.67;;
36315;SDS011;22343;50.820;2.666;2023-03-16T03:16:49;8.70;;;5.17;;
36315;SDS011;22343;50.820;2.666;2023-03-16T03:19:35;11.53;;;5.43;;
36315;SDS011;22343;50.820;2.666;2023-03-16T03:22:20;7.50;;;5.27;;
36315;SDS011;22343;50.820;2.666;2023-03-16T03:25:04;6.87;;;5.40;;
36315;SDS011;22343;50.820;2.666;2023-03-16T03:27:50;7.43;;;5.10;;
36315;SDS011;22343;50.820;2.666;2023-03-16T03:30:37;8.23;;;5.37;;
36315;SDS011;22343;50.820;2.666;2023-03-16T03:33:21;10.13;;;5.43;;
36315;SDS011;22343;50.820;2.666;2023-03-16T03:36:06;6.80;;;5.17;;
36315;SDS011;22343;50.820;2.666;2023-03-16T03:38:51;10.83;;;5.30;;
36315;SDS011;22343;50.820;2.666;2023-03-16T03:41:37;9.10;;;5.77;;
36315;SDS011;22343;50.820;2.666;2023-03-16T03:44:23;7.10;;;5.23;;
36315;SDS011;22343;50.820;2.666;2023-03-16T03:47:07;8.63;;;5.50;;
36315;SDS011;22343;50.820;2.666;2023-03-16T03:49:51;7.97;;;5.10;;
36315;SDS011;22343;50.820;2.666;2023-03-16T03:52:35;6.70;;;5.20;;
36315;SDS011;22343;50.820;2.666;2023-03-16T03:55:20;8.20;;;5.30;;
36315;SDS011;22343;50.820;2.666;2023-03-16T03:58:04;7.30;;;5.40;;
36315;SDS011;22343;50.820;2.666;2023-03-16T04:00:48;9.60;;;4.90;;
36315;SDS011;22343;50.820;2.666;2023-03-16T04:03:32;7.63;;;4.77;;
36315;SDS011;22343;50.820;2.666;2023-03-16T04:06:17;6.37;;;4.43;;
36315;SDS011;22343;50.820;2.666;2023-03-16T04:09:01;6.70;;;4.60;;
36315;SDS011;22343;50.820;2.666;2023-03-16T04:11:45;7.13;;;4.87;;
36315;SDS011;22343;50.820;2.666;2023-03-16T04:14:30;9.07;;;5.10;;
36315;SDS011;22343;50.820;2.666;2023-03-16T04:17:15;6.87;;;4.90;;
36315;SDS011;22343;50.820;2.666;2023-03-16T04:20:00;8.63;;;4.90;;
36315;SDS011;22343;50.820;2.666;2023-03-16T04:22:45;7.40;;;4.60;;
36315;SDS011;22343;50.820;2.666;2023-03-16T04:25:30;7.83;;;4.10;;
36315;SDS011;22343;50.820;2.666;2023-03-16T04:28:14;6.33;;;4.50;;
36315;SDS011;22343;50.820;2.666;2023-03-16T04:31:05;5.53;;;3.73;;
36315;SDS011;22343;50.820;2.666;2023-03-16T04:33:50;5.83;;;3.97;;
36315;SDS011;22343;50.820;2.666;2023-03-16T04:36:37;7.53;;;4.63;;
36315;SDS011;22343;50.820;2.666;2023-03-16T04:39:22;7.27;;;4.47;;
36315;SDS011;22343;50.820;2.666;2023-03-16T04:42:06;4.67;;;4.07;;
36315;SDS011;22343;50.820;2.666;2023-03-16T04:44:51;7.10;;;4.17;;
36315;SDS011;22343;50.820;2.666;2023-03-16T04:47:35;7.70;;;4.50;;
36315;SDS011;22343;50.820;2.666;2023-03-16T04:50:20;4.87;;;3.83;;
36315;SDS011;22343;50.820;2.666;2023-03-16T04:53:05;7.00;;;4.20;;
36315;SDS011;22343;50.820;2.666;2023-03-16T04:55:50;6.53;;;3.93;;
36315;SDS011;22343;50.820;2.666;2023-03-16T04:58:34;5.73;;;3.70;;
36315;SDS011;22343;50.820;2.666;2023-03-16T05:01:19;6.53;;;3.77;;
36315;SDS011;22343;50.820;2.666;2023-03-16T05:04:03;4.93;;;3.60;;
36315;SDS011;22343;50.820;2.666;2023-03-16T05:06:47;6.00;;;3.50;;
36315;SDS011;22343;50.820;2.666;2023-03-16T05:09:33;5.77;;;3.63;;
36315;SDS011;22343;50.820;2.666;2023-03-16T05:12:17;5.93;;;3.60;;
36315;SDS011;22343;50.820;2.666;2023-03-16T05:15:02;5.40;;;3.67;;
36315;SDS011;22343;50.820;2.666;2023-03-16T05:17:47;4.57;;;3.70;;
36315;SDS011;22343;50.820;2.666;2023-03-16T05:20:31;7.13;;;3.50;;
36315;SDS011;22343;50.820;2.666;2023-03-16T05:23:16;5.03;;;3.67;;
36315;SDS011;22343;50.820;2.666;2023-03-16T05:26:01;5.40;;;3.60;;
36315;SDS011;22343;50.820;2.666;2023-03-16T05:28:45;4.93;;;3.83;;
36315;SDS011;22343;50.820;2.666;2023-03-16T05:31:30;5.30;;;3.80;;
36315;SDS011;22343;50.820;2.666;2023-03-16T05:34:17;4.20;;;3.30;;
36315;SDS011;22343;50.820;2.666;2023-03-16T05:37:02;5.03;;;3.30;;
36315;SDS011;22343;50.820;2.666;2023-03-16T05:39:47;5.43;;;3.70;;
36315;SDS011;22343;50.820;2.666;2023-03-16T05:42:31;5.03;;;3.50;;
36315;SDS011;22343;50.820;2.666;2023-03-16T05:45:20;6.60;;;3.77;;
36315;SDS011;22343;50.820;2.666;2023-03-16T05:48:05;6.80;;;3.67;;
36315;SDS011;22343;50.820;2.666;2023-03-16T05:50:49;6.23;;;3.40;;
36315;SDS011;22343;50.820;2.666;2023-03-16T05:53:34;5.10;;;3.43;;
36315;SDS011;22343;50.820;2.666;2023-03-16T05:56:18;6.10;;;3.50;;
36315;SDS011;22343;50.820;2.666;2023-03-16T05:59:03;5.10;;;3.43;;
36315;SDS011;22343;50.820;2.666;2023-03-16T06:01:48;6.10;;;3.40;;
36315;SDS011;22343;50.820;2.666;2023-03-16T06:04:33;3.90;;;3.37;;
36315;SDS011;22343;50.820;2.666;2023-03-16T06:07:17;4.67;;;3.40;;
36315;SDS011;22343;50.820;2.666;2023-03-16T06:10:02;4.10;;;3.20;;
36315;SDS011;22343;50.820;2.666;2023-03-16T06:12:47;7.90;;;3.80;;
36315;SDS011;22343;50.820;2.666;2023-03-16T06:15:32;5.30;;;3.33;;
36315;SDS011;22343;50.820;2.666;2023-03-16T06:18:16;7.50;;;3.67;;
36315;SDS011;22343;50.820;2.666;2023-03-16T06:21:00;6.03;;;3.37;;
36315;SDS011;22343;50.820;2.666;2023-03-16T06:23:45;6.10;;;3.40;;
36315;SDS011;22343;50.820;2.666;2023-03-16T06:26:29;7.00;;;3.63;;
36315;SDS011;22343;50.820;2.666;2023-03-16T06:29:13;6.90;;;3.20;;
36315;SDS011;22343;50.820;2.666;2023-03-16T06:31:58;5.10;;;3.37;;
36315;SDS011;22343;50.820;2.666;2023-03-16T06:34:43;4.63;;;3.10;;
36315;SDS011;22343;50.820;2.666;2023-03-16T06:37:27;3.73;;;3.10;;
36315;SDS011;22343;50.820;2.666;2023-03-16T06:40:12;5.20;;;3.20;;
36315;SDS011;22343;50.820;2.666;2023-03-16T06:42:56;5.70;;;3.30;;
36315;SDS011;22343;50.820;2.666;2023-03-16T06:45:41;5.70;;;3.33;;
36315;SDS011;22343;50.820;2.666;2023-03-16T06:48:26;5.83;;;3.60;;
36315;SDS011;22343;50.820;2.666;2023-03-16T06:51:10;5.07;;;3.03;;
36315;SDS011;22343;50.820;2.666;2023-03-16T06:53:54;4.67;;;3.20;;
36315;SDS011;22343;50.820;2.666;2023-03-16T06:56:39;4.50;;;3.30;;
36315;SDS011;22343;50.820;2.666;2023-03-16T06:59:23;7.43;;;3.33;;
36315;SDS011;22343;50.820;2.666;2023-03-16T07:02:10;4.60;;;3.10;;
36315;SDS011;22343;50.820;2.666;2023-03-16T07:04:56;4.87;;;3.33;;
36315;SDS011;22343;50.820;2.666;2023-03-16T07:07:41;6.67;;;3.57;;
36315;SDS011;22343;50.820;2.666;2023-03-16T07:10:26;5.90;;;3.37;;
36315;SDS011;22343;50.820;2.666;2023-03-16T07:13:10;5.00;;;3.57;;
36315;SDS011;22343;50.820;2.666;2023-03-16T07:15:55;5.30;;;3.60;;
36315;SDS011;22343;50.820;2.666;2023-03-16T07:18:39;6.20;;;3.40;;
36315;SDS011;22343;50.820;2.666;2023-03-16T07:21:27;6.30;;;3.40;;
36315;SDS011;22343;50.820;2.666;2023-03-16T07:24:11;6.03;;;3.20;;
36315;SDS011;22343;50.820;2.666;2023-03-16T07:26:56;4.37;;;3.23;;
36315;SDS011;22343;50.820;2.666;2023-03-16T07:29:40;5.30;;;3.47;;
36315;SDS011;22343;50.820;2.666;2023-03-16T07:32:24;7.27;;;3.60;;
36315;SDS011;22343;50.820;2.666;2023-03-16T07:35:09;6.67;;;3.63;;
36315;SDS011;22343;50.820;2.666;2023-03-16T07:37:54;7.57;;;3.57;;
36315;SDS011;22343;50.820;2.666;2023-03-16T07:40:39;7.03;;;3.20;;
36315;SDS011;22343;50.820;2.666;2023-03-16T07:43:24;4.93;;;3.13;;
36315;SDS011;22343;50.820;2.666;2023-03-16T07:46:08;4.33;;;3.03;;
36315;SDS011;22343;50.820;2.666;2023-03-16T07:48:56;5.93;;;3.23;;
36315;SDS011;22343;50.820;2.666;2023-03-16T07:51:41;5.37;;;3.23;;
36315;SDS011;22343;50.820;2.666;2023-03-16T07:54:25;4.50;;;3.13;;
36315;SDS011;22343;50.820;2.666;2023-03-16T07:57:10;4.17;;;3.27;;
36315;SDS011;22343;50.820;2.666;2023-03-16T07:59:54;4.23;;;3.00;;
36315;SDS011;22343;50.820;2.666;2023-03-16T08:02:39;4.33;;;3.20;;
36315;SDS011;22343;50.820;2.666;2023-03-16T08:05:25;4.30;;;3.00;;
36315;SDS011;22343;50.820;2.666;2023-03-16T08:08:09;4.77;;;3.03;;
36315;SDS011;22343;50.820;2.666;2023-03-16T08:10:53;5.13;;;3.37;;
36315;SDS011;22343;50.820;2.666;2023-03-16T08:13:38;6.87;;;3.67;;
36315;SDS011;22343;50.820;2.666;2023-03-16T08:16:23;7.20;;;3.67;;
36315;SDS011;22343;50.820;2.666;2023-03-16T08:19:08;4.50;;;3.17;;
36315;SDS011;22343;50.820;2.666;2023-03-16T08:21:52;6.73;;;3.50;;
36315;SDS011;22343;50.820;2.666;2023-03-16T08:24:36;6.73;;;3.80;;
36315;SDS011;22343;50.820;2.666;2023-03-16T08:27:21;5.80;;;3.60;;
36315;SDS011;22343;50.820;2.666;2023-03-16T08:30:06;4.47;;;2.93;;
36315;SDS011;22343;50.820;2.666;2023-03-16T08:32:54;4.73;;;3.40;;
36315;SDS011;22343;50.820;2.666;2023-03-16T08:35:41;5.33;;;3.37;;
36315;SDS011;22343;50.820;2.666;2023-03-16T08:38:27;6.73;;;3.77;;
36315;SDS011;22343;50.820;2.666;2023-03-16T08:41:12;3.40;;;3.03;;
36315;SDS011;22343;50.820;2.666;2023-03-16T08:43:59;5.47;;;3.43;;
36315;SDS011;22343;50.820;2.666;2023-03-16T08:46:44;5.43;;;3.47;;
36315;SDS011;22343;50.820;2.666;2023-03-16T08:49:29;5.43;;;3.33;;
36315;SDS011;22343;50.820;2.666;2023-03-16T08:52:13;5.33;;;3.40;;
36315;SDS011;22343;50.820;2.666;2023-03-16T08:54:59;5.77;;;3.50;;
36315;SDS011;22343;50.820;2.666;2023-03-16T08:57:44;4.97;;;3.53;;
36315;SDS011;22343;50.820;2.666;2023-03-16T09:00:31;6.03;;;3.77;;
36315;SDS011;22343;50.820;2.666;2023-03-16T09:03:15;5.37;;;3.37;;
36315;SDS011;22343;50.820;2.666;2023-03-16T09:06:00;5.03;;;3.40;;
36315;SDS011;22343;50.820;2.666;2023-03-16T09:08:46;8.33;;;3.80;;
36315;SDS011;22343;50.820;2.666;2023-03-16T09:11:30;5.80;;;3.33;;
36315;SDS011;22343;50.820;2.666;2023-03-16T09:14:16;5.33;;;3.23;;
36315;SDS011;22343;50.820;2.666;2023-03-16T09:17:01;6.07;;;3.30;;
36315;SDS011;22343;50.820;2.666;2023-03-16T09:19:46;5.90;;;3.40;;
36315;SDS011;22343;50.820;2.666;2023-03-16T09:22:30;4.13;;;3.10;;
36315;SDS011;22343;50.820;2.666;2023-03-16T09:25:15;5.23;;;3.10;;
36315;SDS011;22343;50.820;2.666;2023-03-16T09:27:59;4.87;;;3.10;;
36315;SDS011;22343;50.820;2.666;2023-03-16T09:30:43;5.57;;;3.20;;
36315;SDS011;22343;50.820;2.666;2023-03-16T09:33:28;6.43;;;3.23;;
36315;SDS011;22343;50.820;2.666;2023-03-16T09:36:13;4.63;;;3.10;;
36315;SDS011;22343;50.820;2.666;2023-03-16T09:38:58;5.23;;;2.97;;
36315;SDS011;22343;50.820;2.666;2023-03-16T09:42:01;4.20;;;2.90;;
36315;SDS011;22343;50.820;2.666;2023-03-16T09:45:13;6.33;;;3.20;;
36315;SDS011;22343;50.820;2.666;2023-03-16T09:48:03;5.60;;;3.20;;
36315;SDS011;22343;50.820;2.666;2023-03-16T09:50:48;5.10;;;2.97;;
36315;SDS011;22343;50.820;2.666;2023-03-16T09:53:34;5.47;;;3.40;;
36315;SDS011;22343;50.820;2.666;2023-03-16T09:56:26;6.00;;;3.10;;
36315;SDS011;22343;50.820;2.666;2023-03-16T09:59:13;6.47;;;3.07;;
36315;SDS011;22343;50.820;2.666;2023-03-16T10:05:09;6.87;;;3.10;;
36315;SDS011;22343;50.820;2.666;2023-03-16T10:14:14;4.13;;;3.17;;
36315;SDS011;22343;50.820;2.666;2023-03-16T10:20:07;5.17;;;3.47;;
36315;SDS011;22343;50.820;2.666;2023-03-16T10:22:56;5.43;;;3.43;;
36315;SDS011;22343;50.820;2.666;2023-03-16T10:25:47;6.57;;;3.37;;
36315;SDS011;22343;50.820;2.666;2023-03-16T10:28:35;6.57;;;3.50;;
36315;SDS011;22343;50.820;2.666;2023-03-16T10:31:21;6.20;;;3.30;;
36315;SDS011;22343;50.820;2.666;2023-03-16T10:34:06;8.30;;;3.30;;
36315;SDS011;22343;50.820;2.666;2023-03-16T10:36:51;5.87;;;3.20;;
36315;SDS011;22343;50.820;2.666;2023-03-16T10:39:37;6.40;;;3.27;;
36315;SDS011;22343;50.820;2.666;2023-03-16T10:42:26;4.60;;;3.07;;
36315;SDS011;22343;50.820;2.666;2023-03-16T10:45:33;4.70;;;3.30;;
36315;SDS011;22343;50.820;2.666;2023-03-16T10:48:18;4.87;;;3.13;;
36315;SDS011;22343;50.820;2.666;2023-03-16T10:51:06;4.90;;;3.03;;
36315;SDS011;22343;50.820;2.666;2023-03-16T10:54:06;6.57;;;3.37;;
36315;SDS011;22343;50.820;2.666;2023-03-16T10:57:19;6.40;;;3.20;;
36315;SDS011;22343;50.820;2.666;2023-03-16T11:02:57;5.03;;;2.90;;
36315;SDS011;22343;50.820;2.666;2023-03-16T11:05:42;4.47;;;2.97;;
36315;SDS011;22343;50.820;2.666;2023-03-16T11:08:37;4.10;;;2.70;;
36315;SDS011;22343;50.820;2.666;2023-03-16T11:11:26;5.43;;;2.90;;
36315;SDS011;22343;50.820;2.666;2023-03-16T11:14:14;4.67;;;3.20;;
36315;SDS011;22343;50.820;2.666;2023-03-16T11:19:49;5.17;;;3.30;;
36315;SDS011;22343;50.820;2.666;2023-03-16T11:22:37;3.43;;;2.70;;
36315;SDS011;22343;50.820;2.666;2023-03-16T11:25:32;5.17;;;3.03;;
36315;SDS011;22343;50.820;2.666;2023-03-16T11:28:33;4.97;;;2.80;;
36315;SDS011;22343;50.820;2.666;2023-03-16T11:34:44;4.20;;;2.70;;
36315;SDS011;22343;50.820;2.666;2023-03-16T11:38:14;5.07;;;3.13;;
36315;SDS011;22343;50.820;2.666;2023-03-16T11:43:51;4.57;;;2.93;;
36315;SDS011;22343;50.820;2.666;2023-03-16T11:58:42;5.97;;;2.93;;
36315;SDS011;22343;50.820;2.666;2023-03-16T12:01:35;7.03;;;3.30;;
36315;SDS011;22343;50.820;2.666;2023-03-16T12:10:33;8.17;;;3.83;;
36315;SDS011;22343;50.820;2.666;2023-03-16T12:16:32;14.83;;;8.60;;
36315;SDS011;22343;50.820;2.666;2023-03-16T12:19:37;14.67;;;11.37;;
36315;SDS011;22343;50.820;2.666;2023-03-16T12:22:32;8.60;;;5.07;;
36315;SDS011;22343;50.820;2.666;2023-03-16T12:25:21;6.80;;;3.77;;
36315;SDS011;22343;50.820;2.666;2023-03-16T12:28:17;5.87;;;3.93;;
36315;SDS011;22343;50.820;2.666;2023-03-16T12:31:18;5.33;;;4.07;;
36315;SDS011;22343;50.820;2.666;2023-03-16T12:34:09;6.10;;;3.80;;
36315;SDS011;22343;50.820;2.666;2023-03-16T12:40:03;9.47;;;5.80;;
36315;SDS011;22343;50.820;2.666;2023-03-16T12:48:57;6.17;;;3.50;;
36315;SDS011;22343;50.820;2.666;2023-03-16T12:51:44;5.43;;;3.30;;
36315;SDS011;22343;50.820;2.666;2023-03-16T12:54:28;5.67;;;3.47;;
36315;SDS011;22343;50.820;2.666;2023-03-16T12:57:14;5.13;;;4.17;;
36315;SDS011;22343;50.820;2.666;2023-03-16T12:59:59;6.00;;;4.20;;
36315;SDS011;22343;50.820;2.666;2023-03-16T13:02:52;5.10;;;4.37;;
36315;SDS011;22343;50.820;2.666;2023-03-16T13:05:43;5.73;;;4.50;;
36315;SDS011;22343;50.820;2.666;2023-03-16T13:08:40;6.50;;;4.00;;
36315;SDS011;22343;50.820;2.666;2023-03-16T13:11:26;5.87;;;3.87;;
36315;SDS011;22343;50.820;2.666;2023-03-16T13:17:22;5.40;;;3.90;;
36315;SDS011;22343;50.820;2.666;2023-03-16T13:28:59;6.37;;;4.40;;
36315;SDS011;22343;50.820;2.666;2023-03-16T13:31:43;6.03;;;4.50;;
36315;SDS011;22343;50.820;2.666;2023-03-16T13:34:29;7.10;;;4.60;;
36315;SDS011;22343;50.820;2.666;2023-03-16T13:37:16;7.40;;;3.90;;
36315;SDS011;22343;50.820;2.666;2023-03-16T13:40:02;6.57;;;4.03;;
36315;SDS011;22343;50.820;2.666;2023-03-16T13:42:48;5.67;;;3.77;;
36315;SDS011;22343;50.820;2.666;2023-03-16T13:45:36;5.43;;;4.03;;
36315;SDS011;22343;50.820;2.666;2023-03-16T13:48:21;5.87;;;3.93;;
36315;SDS011;22343;50.820;2.666;2023-03-16T13:51:09;8.67;;;4.50;;
36315;SDS011;22343;50.820;2.666;2023-03-16T13:54:43;6.20;;;3.80;;
36315;SDS011;22343;50.820;2.666;2023-03-16T13:57:19;5.50;;;3.93;;
36315;SDS011;22343;50.820;2.666;2023-03-16T14:02:59;5.83;;;4.17;;
36315;SDS011;22343;50.820;2.666;2023-03-16T14:05:51;6.67;;;4.30;;
36315;SDS011;22343;50.820;2.666;2023-03-16T14:08:36;5.67;;;3.90;;
36315;SDS011;22343;50.820;2.666;2023-03-16T14:11:21;6.83;;;5.10;;
36315;SDS011;22343;50.820;2.666;2023-03-16T14:14:15;6.07;;;4.53;;
36315;SDS011;22343;50.820;2.666;2023-03-16T14:17:07;6.00;;;4.13;;
36315;SDS011;22343;50.820;2.666;2023-03-16T14:20:00;5.63;;;3.93;;
36315;SDS011;22343;50.820;2.666;2023-03-16T14:22:45;6.43;;;4.83;;
36315;SDS011;22343;50.820;2.666;2023-03-16T14:25:30;6.03;;;4.10;;
36315;SDS011;22343;50.820;2.666;2023-03-16T14:28:16;6.63;;;4.30;;
36315;SDS011;22343;50.820;2.666;2023-03-16T14:31:04;7.43;;;4.10;;
36315;SDS011;22343;50.820;2.666;2023-03-16T14:33:49;6.18;;;3.90;;
36315;SDS011;22343;50.820;2.666;2023-03-16T14:36:43;9.82;;;5.15;;
36315;SDS011;22343;50.820;2.666;2023-03-16T14:39:27;11.03;;;6.87;;
36315;SDS011;22343;50.820;2.666;2023-03-16T14:42:33;11.03;;;6.27;;
36315;SDS011;22343;50.820;2.666;2023-03-16T14:45:17;9.03;;;6.40;;
36315;SDS011;22343;50.820;2.666;2023-03-16T14:48:05;9.53;;;6.20;;
36315;SDS011;22343;50.820;2.666;2023-03-16T14:50:54;6.90;;;3.72;;
36315;SDS011;22343;50.820;2.666;2023-03-16T14:53:40;4.97;;;4.00;;
36315;SDS011;22343;50.820;2.666;2023-03-16T14:56:30;5.13;;;4.17;;
36315;SDS011;22343;50.820;2.666;2023-03-16T14:59:17;7.67;;;5.20;;
36315;SDS011;22343;50.820;2.666;2023-03-16T15:02:01;9.93;;;7.97;;
36315;SDS011;22343;50.820;2.666;2023-03-16T15:04:47;8.27;;;6.88;;
36315;SDS011;22343;50.820;2.666;2023-03-16T15:07:33;7.30;;;5.00;;
36315;SDS011;22343;50.820;2.666;2023-03-16T15:10:24;6.77;;;4.80;;
36315;SDS011;22343;50.820;2.666;2023-03-16T15:13:10;9.23;;;5.60;;
36315;SDS011;22343;50.820;2.666;2023-03-16T15:16:00;7.40;;;4.43;;
36315;SDS011;22343;50.820;2.666;2023-03-16T15:18:47;6.10;;;4.50;;
36315;SDS011;22343;50.820;2.666;2023-03-16T15:21:32;7.53;;;5.10;;
36315;SDS011;22343;50.820;2.666;2023-03-16T15:24:17;5.18;;;4.00;;
36315;SDS011;22343;50.820;2.666;2023-03-16T15:27:01;5.83;;;3.93;;
36315;SDS011;22343;50.820;2.666;2023-03-16T15:29:45;6.50;;;4.20;;
36315;SDS011;22343;50.820;2.666;2023-03-16T15:32:29;6.83;;;4.33;;
36315;SDS011;22343;50.820;2.666;2023-03-16T15:35:14;5.70;;;4.20;;
36315;SDS011;22343;50.820;2.666;2023-03-16T15:37:59;4.50;;;4.10;;
36315;SDS011;22343;50.820;2.666;2023-03-16T15:40:47;7.27;;;4.40;;
36315;SDS011;22343;50.820;2.666;2023-03-16T15:43:33;5.57;;;4.30;;
36315;SDS011;22343;50.820;2.666;2023-03-16T15:46:18;5.57;;;4.07;;
36315;SDS011;22343;50.820;2.666;2023-03-16T15:49:03;6.70;;;4.30;;
36315;SDS011;22343;50.820;2.666;2023-03-16T15:51:47;6.00;;;4.50;;
36315;SDS011;22343;50.820;2.666;2023-03-16T15:54:32;8.27;;;4.67;;
36315;SDS011;22343;50.820;2.666;2023-03-16T15:57:18;7.00;;;5.20;;
36315;SDS011;22343;50.820;2.666;2023-03-16T16:00:03;5.53;;;4.37;;
36315;SDS011;22343;50.820;2.666;2023-03-16T16:02:48;4.33;;;3.90;;
36315;SDS011;22343;50.820;2.666;2023-03-16T16:05:32;4.30;;;3.87;;
36315;SDS011;22343;50.820;2.666;2023-03-16T16:08:16;4.93;;;4.07;;
36315;SDS011;22343;50.820;2.666;2023-03-16T16:11:01;5.30;;;4.30;;
36315;SDS011;22343;50.820;2.666;2023-03-16T16:13:48;8.20;;;4.13;;
36315;SDS011;22343;50.820;2.666;2023-03-16T16:16:33;9.10;;;4.77;;
36315;SDS011;22343;50.820;2.666;2023-03-16T16:19:18;6.80;;;4.23;;
36315;SDS011;22343;50.820;2.666;2023-03-16T16:22:03;6.33;;;4.30;;
36315;SDS011;22343;50.820;2.666;2023-03-16T16:24:47;6.23;;;4.53;;
36315;SDS011;22343;50.820;2.666;2023-03-16T16:27:31;8.57;;;5.60;;
36315;SDS011;22343;50.820;2.666;2023-03-16T16:30:20;6.40;;;4.23;;
36315;SDS011;22343;50.820;2.666;2023-03-16T16:33:19;5.57;;;4.10;;
36315;SDS011;22343;50.820;2.666;2023-03-16T16:36:17;7.27;;;4.23;;
36315;SDS011;22343;50.820;2.666;2023-03-16T16:39:03;5.97;;;4.97;;
36315;SDS011;22343;50.820;2.666;2023-03-16T16:41:51;8.03;;;4.57;;
36315;SDS011;22343;50.820;2.666;2023-03-16T16:44:37;7.40;;;4.70;;
36315;SDS011;22343;50.820;2.666;2023-03-16T16:47:21;5.50;;;4.03;;
36315;SDS011;22343;50.820;2.666;2023-03-16T16:50:12;6.37;;;4.43;;
36315;SDS011;22343;50.820;2.666;2023-03-16T16:52:58;7.93;;;4.63;;
36315;SDS011;22343;50.820;2.666;2023-03-16T16:55:42;5.07;;;4.00;;
36315;SDS011;22343;50.820;2.666;2023-03-16T16:58:27;5.47;;;4.50;;
36315;SDS011;22343;50.820;2.666;2023-03-16T17:01:13;7.53;;;4.30;;
36315;SDS011;22343;50.820;2.666;2023-03-16T17:03:58;6.93;;;4.10;;
36315;SDS011;22343;50.820;2.666;2023-03-16T17:06:44;7.73;;;4.30;;
36315;SDS011;22343;50.820;2.666;2023-03-16T17:09:29;6.97;;;4.50;;
36315;SDS011;22343;50.820;2.666;2023-03-16T17:12:15;5.37;;;4.30;;
36315;SDS011;22343;50.820;2.666;2023-03-16T17:15:21;5.70;;;4.20;;
36315;SDS011;22343;50.820;2.666;2023-03-16T17:18:09;6.00;;;4.20;;
36315;SDS011;22343;50.820;2.666;2023-03-16T17:20:56;6.23;;;4.30;;
36315;SDS011;22343;50.820;2.666;2023-03-16T17:23:40;7.73;;;4.77;;
36315;SDS011;22343;50.820;2.666;2023-03-16T17:26:29;5.33;;;4.23;;
36315;SDS011;22343;50.820;2.666;2023-03-16T17:32:09;4.97;;;3.97;;
36315;SDS011;22343;50.820;2.666;2023-03-16T17:34:59;6.37;;;3.87;;
36315;SDS011;22343;50.820;2.666;2023-03-16T17:37:44;8.10;;;5.33;;
36315;SDS011;22343;50.820;2.666;2023-03-16T17:40:30;11.13;;;6.63;;
36315;SDS011;22343;50.820;2.666;2023-03-16T17:43:17;7.47;;;5.20;;
36315;SDS011;22343;50.820;2.666;2023-03-16T17:46:04;9.43;;;5.57;;
36315;SDS011;22343;50.820;2.666;2023-03-16T17:48:50;6.33;;;4.30;;
36315;SDS011;22343;50.820;2.666;2023-03-16T17:51:35;5.97;;;4.13;;
36315;SDS011;22343;50.820;2.666;2023-03-16T17:54:21;5.13;;;4.13;;
36315;SDS011;22343;50.820;2.666;2023-03-16T17:57:07;7.10;;;4.20;;
36315;SDS011;22343;50.820;2.666;2023-03-16T17:59:57;6.23;;;4.17;;
36315;SDS011;22343;50.820;2.666;2023-03-16T18:02:58;6.80;;;4.87;;